Terminal Aerodrome Forecast
Issued by NWS Shreveport, LA

Home | Current Version | Previous Version | Text Only | Print | Product List | Glossary On
Versions: 1 2 3 4 5 6 7 8 9 10 11 12 13 14 15 16 17 18 19 20 21
000
FTUS44 KSHV 211402 AAD
TAFELD
TAF AMD
KELD 211402Z 2114/2212 00000KT P6SM FEW002
     FM211500 16005KT P6SM OVC008
     FM211600 15005KT P6SM OVC015
     FM212100 17007KT P6SM VCTS OVC025CB
     FM220000 18007KT P6SM VCTS OVC030CB
     FM220400 19007KT P6SM BKN250=

USA.gov is the U.S. government's official web portal to all federal, state and local government web resources and services.